AAL1120 KABQ-KOKC
Flight info
| Callsign | AAL1120 |
|---|---|
| Flight time | 1h 17m |
| Altitude | 33000 |
| Route | LARGO3 ABQ FTI TCC RUSTS GHOST3 |
| Aircraft | B738/M-SDE2E3FGHIRWXY/LB1 |
Departure
| Time | 2026-04-16 23:11 |
|---|---|
| Airport | Albuquerque International Sunport (KABQ) |
Arrival
| Time | 2026-04-17 00:28 |
|---|---|
| Airport | OKC Will Rogers World Airport (KOKC) |
| Time | Latitude | Longitude | Altitude | Speed | Heading |
|---|---|---|---|---|---|
| 2026-04-16 22:53 | 35.04702 | -106.61401 | 5339 ft | 0 kts | 307° |
| 2026-04-16 23:01 | 35.04702 | -106.61402 | 5339 ft | 0 kts | 307° |
| 2026-04-16 23:01 | 35.04697 | -106.61396 | 5339 ft | 2 kts | 340° |
| 2026-04-16 23:01 | 35.04682 | -106.61391 | 5339 ft | 2 kts | 333° |
| 2026-04-16 23:02 | 35.04670 | -106.61382 | 5340 ft | 1 kts | 335° |
| 2026-04-16 23:02 | 35.04665 | -106.61380 | 5340 ft | 0 kts | 307° |
| 2026-04-16 23:02 | 35.04662 | -106.61373 | 5340 ft | 0 kts | 253° |
| 2026-04-16 23:02 | 35.04665 | -106.61367 | 5340 ft | 0 kts | 206° |
| 2026-04-16 23:03 | 35.04670 | -106.61365 | 5340 ft | 0 kts | 171° |
| 2026-04-16 23:03 | 35.04676 | -106.61366 | 5340 ft | 0 kts | 178° |
| 2026-04-16 23:05 | 35.04674 | -106.61365 | 5340 ft | 2 kts | 174° |
| 2026-04-16 23:05 | 35.04623 | -106.61352 | 5339 ft | 11 kts | 154° |
| 2026-04-16 23:05 | 35.04581 | -106.61262 | 5340 ft | 16 kts | 93° |
| 2026-04-16 23:05 | 35.04579 | -106.61076 | 5341 ft | 26 kts | 90° |
| 2026-04-16 23:06 | 35.04578 | -106.60834 | 5343 ft | 28 kts | 90° |
| 2026-04-16 23:06 | 35.04577 | -106.60614 | 5344 ft | 24 kts | 90° |
| 2026-04-16 23:06 | 35.04574 | -106.60407 | 5345 ft | 24 kts | 89° |
| 2026-04-16 23:06 | 35.04574 | -106.60202 | 5345 ft | 24 kts | 90° |
| 2026-04-16 23:07 | 35.04573 | -106.59993 | 5346 ft | 25 kts | 88° |
| 2026-04-16 23:07 | 35.04584 | -106.59784 | 5349 ft | 24 kts | 91° |
| 2026-04-16 23:07 | 35.04583 | -106.59576 | 5349 ft | 24 kts | 90° |
| 2026-04-16 23:07 | 35.04582 | -106.59371 | 5352 ft | 23 kts | 90° |
| 2026-04-16 23:08 | 35.04581 | -106.59169 | 5353 ft | 24 kts | 90° |
| 2026-04-16 23:08 | 35.04579 | -106.58965 | 5356 ft | 24 kts | 90° |
| 2026-04-16 23:08 | 35.04578 | -106.58751 | 5358 ft | 26 kts | 90° |
| 2026-04-16 23:08 | 35.04577 | -106.58519 | 5362 ft | 27 kts | 90° |
| 2026-04-16 23:09 | 35.04575 | -106.58273 | 5366 ft | 30 kts | 90° |
| 2026-04-16 23:09 | 35.04574 | -106.58015 | 5370 ft | 30 kts | 90° |
| 2026-04-16 23:09 | 35.04572 | -106.57790 | 5374 ft | 19 kts | 90° |
| 2026-04-16 23:09 | 35.04568 | -106.57638 | 5376 ft | 15 kts | 104° |
| 2026-04-16 23:10 | 35.04548 | -106.57596 | 5376 ft | 0 kts | 136° |
| 2026-04-16 23:10 | 35.04530 | -106.57581 | 5376 ft | 11 kts | 153° |
| 2026-04-16 23:10 | 35.04446 | -106.57588 | 5376 ft | 12 kts | 209° |
| 2026-04-16 23:10 | 35.04409 | -106.57680 | 5374 ft | 14 kts | 266° |
| 2026-04-16 23:11 | 35.04409 | -106.57969 | 5370 ft | 70 kts | 270° |
| 2026-04-16 23:11 | 35.04415 | -106.58890 | 5356 ft | 144 kts | 270° |
| 2026-04-16 23:11 | 35.04439 | -106.60351 | 5555 ft | 187 kts | 267° |
| 2026-04-16 23:11 | 35.04401 | -106.61952 | 6329 ft | 194 kts | 265° |
| 2026-04-16 23:12 | 35.04397 | -106.63536 | 7304 ft | 191 kts | 267° |
| 2026-04-16 23:12 | 35.04426 | -106.65177 | 7973 ft | 201 kts | 268° |
| 2026-04-16 23:12 | 35.04445 | -106.66888 | 8614 ft | 211 kts | 269° |
| 2026-04-16 23:12 | 35.04833 | -106.68694 | 9140 ft | 234 kts | 297° |
| 2026-04-16 23:13 | 35.06080 | -106.70022 | 9673 ft | 258 kts | 331° |
| 2026-04-16 23:13 | 35.07951 | -106.70370 | 10160 ft | 288 kts | 5° |
| 2026-04-16 23:13 | 35.09804 | -106.69394 | 10946 ft | 302 kts | 38° |
| 2026-04-16 23:13 | 35.11151 | -106.67390 | 11609 ft | 316 kts | 62° |
| 2026-04-16 23:14 | 35.12030 | -106.64890 | 12220 ft | 331 kts | 70° |
| 2026-04-16 23:14 | 35.12829 | -106.62179 | 12844 ft | 346 kts | 70° |
| 2026-04-16 23:14 | 35.13693 | -106.59380 | 13427 ft | 362 kts | 69° |
| 2026-04-16 23:14 | 35.14661 | -106.56472 | 14029 ft | 378 kts | 68° |
| 2026-04-16 23:15 | 35.16816 | -106.50427 | 15326 ft | 404 kts | 66° |
| 2026-04-16 23:15 | 35.17972 | -106.47274 | 16183 ft | 410 kts | 66° |
| 2026-04-16 23:15 | 35.19142 | -106.44092 | 17063 ft | 414 kts | 66° |
| 2026-04-16 23:16 | 35.20325 | -106.40871 | 17907 ft | 420 kts | 66° |
| 2026-04-16 23:16 | 35.21521 | -106.37605 | 18710 ft | 426 kts | 66° |
| 2026-04-16 23:16 | 35.22738 | -106.34270 | 19392 ft | 435 kts | 67° |
| 2026-04-16 23:16 | 35.23975 | -106.30875 | 20128 ft | 442 kts | 67° |
| 2026-04-16 23:17 | 35.25238 | -106.27396 | 20860 ft | 449 kts | 68° |
| 2026-04-16 23:17 | 35.26497 | -106.23922 | 21534 ft | 456 kts | 68° |
| 2026-04-16 23:17 | 35.27783 | -106.20371 | 22210 ft | 462 kts | 68° |
| 2026-04-16 23:17 | 35.29081 | -106.16781 | 22880 ft | 468 kts | 68° |
| 2026-04-16 23:18 | 35.30415 | -106.13088 | 23581 ft | 473 kts | 68° |
| 2026-04-16 23:18 | 35.31732 | -106.09441 | 24303 ft | 477 kts | 68° |
| 2026-04-16 23:18 | 35.33077 | -106.05714 | 24927 ft | 483 kts | 68° |
| 2026-04-16 23:18 | 35.34426 | -106.01970 | 25583 ft | 487 kts | 68° |
| 2026-04-16 23:19 | 35.35794 | -105.98167 | 26207 ft | 491 kts | 68° |
| 2026-04-16 23:19 | 35.37184 | -105.94300 | 26742 ft | 497 kts | 68° |
| 2026-04-16 23:19 | 35.38569 | -105.90439 | 27344 ft | 501 kts | 69° |
| 2026-04-16 23:19 | 35.39959 | -105.86562 | 27961 ft | 504 kts | 69° |
| 2026-04-16 23:20 | 35.41372 | -105.82614 | 28558 ft | 507 kts | 69° |
| 2026-04-16 23:20 | 35.42786 | -105.78659 | 29172 ft | 509 kts | 68° |
| 2026-04-16 23:20 | 35.44194 | -105.74716 | 30101 ft | 504 kts | 68° |
| 2026-04-16 23:20 | 35.45580 | -105.70832 | 31104 ft | 496 kts | 69° |
| 2026-04-16 23:21 | 35.46942 | -105.67007 | 31972 ft | 491 kts | 69° |
| 2026-04-16 23:21 | 35.48298 | -105.63191 | 32589 ft | 491 kts | 69° |
| 2026-04-16 23:21 | 35.49679 | -105.59299 | 33088 ft | 494 kts | 69° |
| 2026-04-16 23:22 | 35.52412 | -105.51578 | 33134 ft | 492 kts | 69° |
| 2026-04-16 23:22 | 35.55143 | -105.43855 | 33136 ft | 491 kts | 69° |
| 2026-04-16 23:23 | 35.57851 | -105.36182 | 33129 ft | 491 kts | 69° |
| 2026-04-16 23:23 | 35.60549 | -105.28520 | 33114 ft | 490 kts | 69° |
| 2026-04-16 23:24 | 35.63196 | -105.20832 | 33086 ft | 488 kts | 72° |
| 2026-04-16 23:24 | 35.64918 | -105.12849 | 33080 ft | 485 kts | 85° |
| 2026-04-16 23:25 | 35.65305 | -105.04630 | 33083 ft | 477 kts | 97° |
| 2026-04-16 23:25 | 35.64359 | -104.96733 | 33092 ft | 466 kts | 110° |
| 2026-04-16 23:26 | 35.62117 | -104.89306 | 33108 ft | 457 kts | 123° |
| 2026-04-16 23:26 | 35.58860 | -104.82745 | 33110 ft | 450 kts | 130° |
| 2026-04-16 23:27 | 35.55479 | -104.76252 | 33106 ft | 456 kts | 126° |
| 2026-04-16 23:27 | 35.52616 | -104.69312 | 33093 ft | 459 kts | 120° |
| 2026-04-16 23:28 | 35.50169 | -104.62139 | 33081 ft | 460 kts | 117° |
| 2026-04-16 23:28 | 35.47851 | -104.54792 | 33057 ft | 463 kts | 116° |
| 2026-04-16 23:29 | 35.45580 | -104.47427 | 33040 ft | 461 kts | 116° |
| 2026-04-16 23:29 | 35.43328 | -104.40099 | 33032 ft | 462 kts | 116° |
| 2026-04-16 23:30 | 35.41053 | -104.32725 | 33025 ft | 462 kts | 117° |
| 2026-04-16 23:30 | 35.38802 | -104.25446 | 33018 ft | 461 kts | 116° |
| 2026-04-16 23:31 | 35.36514 | -104.18087 | 33013 ft | 461 kts | 116° |
| 2026-04-16 23:31 | 35.34240 | -104.10784 | 33016 ft | 462 kts | 117° |
| 2026-04-16 23:32 | 35.31950 | -104.03453 | 33023 ft | 460 kts | 116° |
| 2026-04-16 23:32 | 35.29668 | -103.96168 | 33019 ft | 460 kts | 116° |
| 2026-04-16 23:33 | 35.27370 | -103.88847 | 33020 ft | 461 kts | 116° |
| 2026-04-16 23:33 | 35.25056 | -103.81495 | 33007 ft | 461 kts | 116° |
| 2026-04-16 23:34 | 35.22771 | -103.74243 | 32985 ft | 461 kts | 116° |
| 2026-04-16 23:34 | 35.20452 | -103.66910 | 32961 ft | 461 kts | 117° |
| 2026-04-16 23:35 | 35.18551 | -103.59392 | 32955 ft | 470 kts | 107° |
| 2026-04-16 23:35 | 35.17879 | -103.51430 | 32963 ft | 477 kts | 94° |
| 2026-04-16 23:36 | 35.18179 | -103.43320 | 32978 ft | 480 kts | 89° |
| 2026-04-16 23:36 | 35.18689 | -103.35204 | 32986 ft | 481 kts | 89° |
| 2026-04-16 23:37 | 35.19101 | -103.27085 | 32983 ft | 481 kts | 91° |
| 2026-04-16 23:37 | 35.19406 | -103.18930 | 32983 ft | 480 kts | 91° |
| 2026-04-16 23:38 | 35.19648 | -103.10738 | 32981 ft | 482 kts | 92° |
| 2026-04-16 23:38 | 35.19864 | -103.02549 | 32981 ft | 481 kts | 92° |
| 2026-04-16 23:39 | 35.20069 | -102.94402 | 32980 ft | 482 kts | 92° |
| 2026-04-16 23:39 | 35.20267 | -102.86242 | 32982 ft | 483 kts | 92° |
| 2026-04-16 23:40 | 35.20463 | -102.78022 | 32987 ft | 482 kts | 92° |
| 2026-04-16 23:40 | 35.20656 | -102.69900 | 32986 ft | 482 kts | 92° |
| 2026-04-16 23:41 | 35.20841 | -102.61690 | 32983 ft | 482 kts | 92° |
| 2026-04-16 23:41 | 35.21021 | -102.53522 | 32980 ft | 485 kts | 92° |
| 2026-04-16 23:42 | 35.21197 | -102.45317 | 32980 ft | 483 kts | 92° |
| 2026-04-16 23:42 | 35.21366 | -102.37079 | 32972 ft | 484 kts | 92° |
| 2026-04-16 23:43 | 35.21528 | -102.28878 | 32974 ft | 484 kts | 92° |
| 2026-04-16 23:43 | 35.21685 | -102.20679 | 32968 ft | 485 kts | 92° |
| 2026-04-16 23:44 | 35.21836 | -102.12444 | 32968 ft | 486 kts | 92° |
| 2026-04-16 23:44 | 35.21984 | -102.04208 | 32969 ft | 486 kts | 92° |
| 2026-04-16 23:45 | 35.22127 | -101.95968 | 32962 ft | 486 kts | 92° |
| 2026-04-16 23:45 | 35.22264 | -101.87689 | 32953 ft | 487 kts | 92° |
| 2026-04-16 23:46 | 35.22398 | -101.79396 | 32953 ft | 488 kts | 92° |
| 2026-04-16 23:46 | 35.22527 | -101.71151 | 32952 ft | 488 kts | 92° |
| 2026-04-16 23:47 | 35.22648 | -101.62911 | 32945 ft | 487 kts | 93° |
| 2026-04-16 23:47 | 35.22763 | -101.54656 | 32947 ft | 489 kts | 92° |
| 2026-04-16 23:48 | 35.22873 | -101.46385 | 32936 ft | 489 kts | 92° |
| 2026-04-16 23:48 | 35.22979 | -101.38025 | 32946 ft | 490 kts | 93° |
| 2026-04-16 23:49 | 35.23078 | -101.29745 | 32946 ft | 488 kts | 93° |
| 2026-04-16 23:49 | 35.23169 | -101.21478 | 32940 ft | 489 kts | 93° |
| 2026-04-16 23:50 | 35.23257 | -101.13176 | 32935 ft | 489 kts | 93° |
| 2026-04-16 23:50 | 35.23339 | -101.04848 | 32935 ft | 491 kts | 93° |
| 2026-04-16 23:51 | 35.23415 | -100.96545 | 32933 ft | 491 kts | 93° |
| 2026-04-16 23:51 | 35.23484 | -100.88223 | 32909 ft | 491 kts | 93° |
| 2026-04-16 23:52 | 35.23555 | -100.80055 | 32902 ft | 467 kts | 93° |
| 2026-04-16 23:52 | 35.23617 | -100.72187 | 32904 ft | 464 kts | 94° |
| 2026-04-16 23:53 | 35.23661 | -100.64318 | 32898 ft | 464 kts | 94° |
| 2026-04-16 23:53 | 35.23704 | -100.56435 | 32899 ft | 465 kts | 93° |
| 2026-04-16 23:54 | 35.23741 | -100.48759 | 32892 ft | 464 kts | 93° |
| 2026-04-16 23:54 | 35.23775 | -100.40922 | 32881 ft | 466 kts | 93° |
| 2026-04-16 23:55 | 35.23805 | -100.33550 | 32877 ft | 465 kts | 94° |
| 2026-04-16 23:55 | 35.23822 | -100.28848 | 32874 ft | 464 kts | 94° |
| 2026-04-16 23:56 | 35.23844 | -100.20946 | 32874 ft | 468 kts | 94° |
| 2026-04-16 23:56 | 35.23863 | -100.13017 | 32872 ft | 465 kts | 93° |
| 2026-04-16 23:57 | 35.23872 | -100.07029 | 32868 ft | 466 kts | 94° |
| 2026-04-16 23:57 | 35.23881 | -99.99182 | 32784 ft | 468 kts | 94° |
| 2026-04-16 23:57 | 35.23883 | -99.95162 | 32249 ft | 471 kts | 94° |
| 2026-04-16 23:58 | 35.23887 | -99.91238 | 32021 ft | 462 kts | 94° |
| 2026-04-16 23:58 | 35.23892 | -99.87361 | 31649 ft | 456 kts | 94° |
| 2026-04-16 23:58 | 35.23893 | -99.83485 | 31023 ft | 457 kts | 94° |
| 2026-04-16 23:58 | 35.23891 | -99.79607 | 30519 ft | 454 kts | 94° |
| 2026-04-16 23:59 | 35.23888 | -99.75777 | 30026 ft | 451 kts | 94° |
| 2026-04-16 23:59 | 35.23883 | -99.71948 | 29578 ft | 447 kts | 94° |
| 2026-04-16 23:59 | 35.23877 | -99.68217 | 29090 ft | 445 kts | 94° |
| 2026-04-16 23:59 | 35.23869 | -99.64421 | 28670 ft | 441 kts | 94° |
| 2026-04-17 00:00 | 35.23861 | -99.60737 | 28241 ft | 437 kts | 94° |
| 2026-04-17 00:00 | 35.23852 | -99.57023 | 27728 ft | 435 kts | 94° |
| 2026-04-17 00:00 | 35.23842 | -99.53378 | 27371 ft | 430 kts | 93° |
| 2026-04-17 00:00 | 35.23832 | -99.49731 | 26910 ft | 427 kts | 93° |
| 2026-04-17 00:01 | 35.23819 | -99.46133 | 26487 ft | 423 kts | 92° |
| 2026-04-17 00:01 | 35.23805 | -99.42586 | 26057 ft | 420 kts | 93° |
| 2026-04-17 00:01 | 35.23790 | -99.39037 | 25588 ft | 417 kts | 93° |
| 2026-04-17 00:01 | 35.23775 | -99.35490 | 25201 ft | 413 kts | 92° |
| 2026-04-17 00:02 | 35.23759 | -99.32034 | 24751 ft | 410 kts | 93° |
| 2026-04-17 00:02 | 35.23743 | -99.28585 | 24292 ft | 406 kts | 93° |
| 2026-04-17 00:02 | 35.23725 | -99.25137 | 23815 ft | 403 kts | 93° |
| 2026-04-17 00:02 | 35.23706 | -99.21729 | 23419 ft | 398 kts | 93° |
| 2026-04-17 00:03 | 35.23706 | -99.18372 | 22881 ft | 398 kts | 91° |
| 2026-04-17 00:03 | 35.23768 | -99.15024 | 22490 ft | 393 kts | 90° |
| 2026-04-17 00:03 | 35.23864 | -99.11683 | 21994 ft | 392 kts | 89° |
| 2026-04-17 00:03 | 35.23972 | -99.08369 | 21542 ft | 389 kts | 89° |
| 2026-04-17 00:04 | 35.24076 | -99.05112 | 21160 ft | 385 kts | 89° |
| 2026-04-17 00:04 | 35.24177 | -99.01871 | 20738 ft | 382 kts | 89° |
| 2026-04-17 00:04 | 35.24273 | -98.98656 | 20326 ft | 378 kts | 89° |
| 2026-04-17 00:04 | 35.24363 | -98.95440 | 19927 ft | 375 kts | 89° |
| 2026-04-17 00:05 | 35.24447 | -98.92315 | 19553 ft | 371 kts | 89° |
| 2026-04-17 00:05 | 35.24527 | -98.89183 | 19145 ft | 368 kts | 89° |
| 2026-04-17 00:05 | 35.24605 | -98.86063 | 18759 ft | 364 kts | 89° |
| 2026-04-17 00:05 | 35.24681 | -98.83004 | 18275 ft | 364 kts | 89° |
| 2026-04-17 00:06 | 35.24756 | -98.79906 | 17877 ft | 361 kts | 89° |
| 2026-04-17 00:06 | 35.24829 | -98.76873 | 17512 ft | 357 kts | 89° |
| 2026-04-17 00:06 | 35.24902 | -98.73861 | 17152 ft | 353 kts | 89° |
| 2026-04-17 00:06 | 35.24973 | -98.70896 | 16719 ft | 352 kts | 89° |
| 2026-04-17 00:07 | 35.25044 | -98.67893 | 16274 ft | 351 kts | 89° |
| 2026-04-17 00:07 | 35.25112 | -98.64967 | 15842 ft | 350 kts | 89° |
| 2026-04-17 00:07 | 35.25180 | -98.61991 | 15475 ft | 347 kts | 89° |
| 2026-04-17 00:07 | 35.25246 | -98.59075 | 15106 ft | 344 kts | 89° |
| 2026-04-17 00:08 | 35.25301 | -98.56624 | 14757 ft | 342 kts | 89° |
| 2026-04-17 00:08 | 35.25372 | -98.53441 | 14352 ft | 339 kts | 89° |
| 2026-04-17 00:08 | 35.25435 | -98.50597 | 13932 ft | 338 kts | 90° |
| 2026-04-17 00:08 | 35.25481 | -98.47735 | 13496 ft | 338 kts | 90° |
| 2026-04-17 00:09 | 35.25500 | -98.44861 | 13106 ft | 336 kts | 91° |
| 2026-04-17 00:09 | 35.25507 | -98.42027 | 12709 ft | 335 kts | 91° |
| 2026-04-17 00:09 | 35.25514 | -98.39171 | 12311 ft | 333 kts | 91° |
| 2026-04-17 00:09 | 35.25522 | -98.36364 | 11920 ft | 332 kts | 91° |
| 2026-04-17 00:10 | 35.25533 | -98.33553 | 11519 ft | 331 kts | 92° |
| 2026-04-17 00:10 | 35.25546 | -98.30773 | 11120 ft | 329 kts | 92° |
| 2026-04-17 00:10 | 35.25560 | -98.27962 | 10720 ft | 328 kts | 92° |
| 2026-04-17 00:10 | 35.25572 | -98.25198 | 10325 ft | 327 kts | 92° |
| 2026-04-17 00:11 | 35.25584 | -98.22418 | 9999 ft | 322 kts | 93° |
| 2026-04-17 00:11 | 35.25623 | -98.19755 | 9900 ft | 314 kts | 91° |
| 2026-04-17 00:11 | 35.25737 | -98.17087 | 9651 ft | 312 kts | 89° |
| 2026-04-17 00:11 | 35.25884 | -98.14474 | 9414 ft | 311 kts | 89° |
| 2026-04-17 00:12 | 35.26035 | -98.11814 | 9177 ft | 311 kts | 89° |
| 2026-04-17 00:12 | 35.26177 | -98.09192 | 8936 ft | 307 kts | 90° |
| 2026-04-17 00:12 | 35.26308 | -98.06615 | 8699 ft | 306 kts | 90° |
| 2026-04-17 00:12 | 35.26432 | -98.04038 | 8459 ft | 303 kts | 90° |
| 2026-04-17 00:13 | 35.26556 | -98.01467 | 8223 ft | 301 kts | 90° |
| 2026-04-17 00:13 | 35.26679 | -97.98924 | 8013 ft | 300 kts | 90° |
| 2026-04-17 00:13 | 35.26809 | -97.96406 | 7990 ft | 298 kts | 90° |
| 2026-04-17 00:13 | 35.26942 | -97.93861 | 7991 ft | 299 kts | 89° |
| 2026-04-17 00:14 | 35.27076 | -97.91322 | 7995 ft | 300 kts | 89° |
| 2026-04-17 00:14 | 35.27207 | -97.88796 | 7995 ft | 300 kts | 90° |
| 2026-04-17 00:14 | 35.27339 | -97.86228 | 7993 ft | 300 kts | 89° |
| 2026-04-17 00:14 | 35.27469 | -97.83725 | 7993 ft | 300 kts | 88° |
| 2026-04-17 00:15 | 35.27800 | -97.81197 | 7994 ft | 300 kts | 75° |
| 2026-04-17 00:15 | 35.28664 | -97.78832 | 7796 ft | 303 kts | 59° |
| 2026-04-17 00:15 | 35.29806 | -97.76733 | 7532 ft | 296 kts | 54° |
| 2026-04-17 00:15 | 35.30991 | -97.74727 | 7299 ft | 282 kts | 55° |
| 2026-04-17 00:16 | 35.32160 | -97.72887 | 7126 ft | 270 kts | 47° |
| 2026-04-17 00:16 | 35.33558 | -97.71416 | 6988 ft | 260 kts | 28° |
| 2026-04-17 00:16 | 35.35242 | -97.70756 | 6792 ft | 257 kts | 1° |
| 2026-04-17 00:16 | 35.37046 | -97.70744 | 6472 ft | 255 kts | 353° |
| 2026-04-17 00:17 | 35.38792 | -97.70837 | 6245 ft | 249 kts | 353° |
| 2026-04-17 00:17 | 35.40532 | -97.70894 | 6166 ft | 251 kts | 355° |
| 2026-04-17 00:17 | 35.42296 | -97.70911 | 6092 ft | 252 kts | 356° |
| 2026-04-17 00:17 | 35.44038 | -97.70910 | 5995 ft | 252 kts | 356° |
| 2026-04-17 00:18 | 35.45798 | -97.70905 | 5985 ft | 252 kts | 356° |
| 2026-04-17 00:18 | 35.47547 | -97.70906 | 5928 ft | 251 kts | 356° |
| 2026-04-17 00:18 | 35.49256 | -97.70905 | 5762 ft | 241 kts | 356° |
| 2026-04-17 00:18 | 35.50926 | -97.70694 | 5412 ft | 244 kts | 18° |
| 2026-04-17 00:19 | 35.52402 | -97.69698 | 5065 ft | 243 kts | 31° |
| 2026-04-17 00:19 | 35.53976 | -97.69017 | 4721 ft | 241 kts | 6° |
| 2026-04-17 00:19 | 35.55636 | -97.68890 | 4411 ft | 238 kts | 360° |
| 2026-04-17 00:19 | 35.57292 | -97.68826 | 4073 ft | 237 kts | 0° |
| 2026-04-17 00:20 | 35.58919 | -97.68750 | 3970 ft | 236 kts | 4° |
| 2026-04-17 00:20 | 35.60456 | -97.68116 | 3974 ft | 229 kts | 36° |
| 2026-04-17 00:20 | 35.61451 | -97.66715 | 3977 ft | 212 kts | 71° |
| 2026-04-17 00:20 | 35.61828 | -97.65024 | 3980 ft | 205 kts | 84° |
| 2026-04-17 00:21 | 35.62007 | -97.63287 | 3973 ft | 199 kts | 100° |
| 2026-04-17 00:21 | 35.61713 | -97.61678 | 3983 ft | 193 kts | 113° |
| 2026-04-17 00:21 | 35.61312 | -97.60117 | 3978 ft | 193 kts | 117° |
| 2026-04-17 00:21 | 35.60605 | -97.58783 | 3977 ft | 182 kts | 146° |
| 2026-04-17 00:22 | 35.58444 | -97.58625 | 3979 ft | 145 kts | 197° |
| 2026-04-17 00:22 | 35.57520 | -97.58808 | 4005 ft | 128 kts | 184° |
| 2026-04-17 00:22 | 35.56622 | -97.58862 | 3985 ft | 127 kts | 184° |
| 2026-04-17 00:23 | 35.55741 | -97.58896 | 3990 ft | 125 kts | 182° |
| 2026-04-17 00:23 | 35.54841 | -97.58887 | 3956 ft | 130 kts | 181° |
| 2026-04-17 00:23 | 35.53921 | -97.58876 | 3885 ft | 137 kts | 182° |
| 2026-04-17 00:23 | 35.52918 | -97.58894 | 3645 ft | 148 kts | 181° |
| 2026-04-17 00:24 | 35.51920 | -97.58891 | 3559 ft | 134 kts | 180° |
| 2026-04-17 00:24 | 35.51732 | -97.58884 | 3545 ft | 132 kts | 180° |
| 2026-04-17 00:25 | 35.51307 | -97.58871 | 3471 ft | 130 kts | 181° |
| 2026-04-17 00:25 | 35.50390 | -97.58859 | 3065 ft | 141 kts | 180° |
| 2026-04-17 00:25 | 35.49421 | -97.58871 | 2825 ft | 134 kts | 182° |
| 2026-04-17 00:26 | 35.48486 | -97.58858 | 2620 ft | 135 kts | 179° |
| 2026-04-17 00:26 | 35.47550 | -97.58823 | 2503 ft | 131 kts | 182° |
| 2026-04-17 00:26 | 35.46654 | -97.58858 | 2367 ft | 127 kts | 182° |
| 2026-04-17 00:26 | 35.45794 | -97.58861 | 2238 ft | 123 kts | 181° |
| 2026-04-17 00:27 | 35.44932 | -97.58865 | 2130 ft | 122 kts | 184° |
| 2026-04-17 00:27 | 35.44076 | -97.58888 | 2003 ft | 123 kts | 182° |
| 2026-04-17 00:27 | 35.43196 | -97.58886 | 1850 ft | 125 kts | 182° |
| 2026-04-17 00:27 | 35.42313 | -97.58894 | 1675 ft | 130 kts | 184° |
| 2026-04-17 00:28 | 35.41409 | -97.58884 | 1530 ft | 130 kts | 182° |
| 2026-04-17 00:28 | 35.40515 | -97.58891 | 1331 ft | 126 kts | 181° |
| 2026-04-17 00:28 | 35.39720 | -97.58896 | 1286 ft | 86 kts | 179° |
| 2026-04-17 00:28 | 35.39364 | -97.58895 | 1289 ft | 30 kts | 180° |
| 2026-04-17 00:29 | 35.39248 | -97.58912 | 1291 ft | 10 kts | 210° |
| 2026-04-17 00:29 | 35.39216 | -97.58985 | 1291 ft | 9 kts | 264° |
| 2026-04-17 00:29 | 35.39214 | -97.59063 | 1292 ft | 8 kts | 269° |
| 2026-04-17 00:29 | 35.39214 | -97.59151 | 1290 ft | 11 kts | 269° |
| 2026-04-17 00:30 | 35.39252 | -97.59215 | 1291 ft | 8 kts | 344° |
| 2026-04-17 00:30 | 35.39323 | -97.59220 | 1292 ft | 11 kts | 356° |
| 2026-04-17 00:30 | 35.39377 | -97.59280 | 1292 ft | 10 kts | 280° |
| 2026-04-17 00:30 | 35.39381 | -97.59369 | 1292 ft | 10 kts | 270° |
| 2026-04-17 00:31 | 35.39381 | -97.59392 | 1292 ft | 0 kts | 269° |
| 2026-04-17 00:31 | 35.39381 | -97.59412 | 1292 ft | 3 kts | 269° |
| 2026-04-17 00:31 | 35.39381 | -97.59444 | 1292 ft | 4 kts | 270° |
| 2026-04-17 00:31 | 35.39381 | -97.59486 | 1292 ft | 5 kts | 269° |
| 2026-04-17 00:32 | 35.39381 | -97.59538 | 1292 ft | 6 kts | 269° |
| 2026-04-17 00:32 | 35.39380 | -97.59573 | 1292 ft | 0 kts | 270° |
| 2026-04-17 00:32 | 35.39381 | -97.59592 | 1292 ft | 3 kts | 273° |
| 2026-04-17 00:32 | 35.39381 | -97.59628 | 1292 ft | 5 kts | 270° |
| 2026-04-17 00:33 | 35.39388 | -97.59673 | 1292 ft | 4 kts | 296° |
| 2026-04-17 00:33 | 35.39408 | -97.59681 | 1292 ft | 2 kts | 39° |
| 2026-04-17 00:33 | 35.39414 | -97.59673 | 1292 ft | 0 kts | 25° |
| 2026-04-17 00:33 | 35.39425 | -97.59668 | 1292 ft | 1 kts | 19° |
| 2026-04-17 00:34 | 35.39437 | -97.59663 | 1292 ft | 1 kts | 18° |
| 2026-04-17 00:34 | 35.39448 | -97.59659 | 1292 ft | 0 kts | 18° |
| 2026-04-17 00:34 | 35.39449 | -97.59658 | 1292 ft | 0 kts | 18° |
| 2026-04-17 00:34 | 35.39451 | -97.59657 | 1292 ft | 0 kts | 18° |